Hovedside
METAR-TAF:

METAR-TAF

Lufthavner :

Sofia, Bulgaria

Sofia lufthavn

breddegrad: 42-39N, lengdegrad: 023-23E, høyde over havet: 586 m

Gjeldene værobservasjon

Denne rapporten ble laget for 20 minutter siden, klokken 19:00 UTC
Vind 7 kt fra Nord
Temperatur 0°C
Luftfuktighet 59%
Trykk 1014 hPa
Sikt 10 km eller mer
ingen skyer under 1500 m og ingen bygeskyer

METAR: LBSF 181900Z 35007KT CAVOK 00/M07 Q1014 NOSIG

Tid: 21:20 (19:20 UTC)

Varsel

Denne rapporten ble laget for 2 timer og 20 minutter siden, klokken 17:00 UTC
Varsel gyldig fra 18. klokken 18 UTC til 19. klokken 18 UTC
Vind 14 kt fra Vest
Sikt 10 km eller mer
ingen skyer under 1500 m og ingen bygeskyer

TAF: LBSF 181700Z 1818/1918 27014KT CAVOK

Værobservasjoner og værvarsel for over 4000 flyplasser (METAR- og TAF-rapporter).

Tilgjengelige stasjoner er representert av de røde og gule prikkene på kartet.

Hold musepekeren over prikken for å se navnet på stasjonen.

Klikk så for å se værobservasjoner og -varsler.

For å forandre kartet kan du klikke på den grønne knappen med svart kryss for å zoome inn, på den grønne knappen med strek for å zoome ut, eller på de grønne pilene for å se tilstøtende kart.


METAR-TAF: